createdAt,value
2022-12-22T00:02:27.745Z,82.29
2022-12-22T00:05:13.155Z,82.31
2022-12-22T00:07:58.352Z,82.64
2022-12-22T00:10:43.434Z,82.52
2022-12-22T00:13:29.518Z,82.51
2022-12-22T00:16:14.851Z,82.38
2022-12-22T00:19:00.211Z,82.17
2022-12-22T00:21:45.874Z,82.45
2022-12-22T00:24:31.075Z,82.72
2022-12-22T00:27:16.254Z,82.47
2022-12-22T00:30:01.417Z,82.61
2022-12-22T00:32:51.166Z,82.55
2022-12-22T00:35:36.348Z,82.70
2022-12-22T00:38:23.597Z,82.41
2022-12-22T00:41:08.926Z,82.80
2022-12-22T00:43:53.907Z,82.67
2022-12-22T00:46:39.988Z,82.63
2022-12-22T00:49:25.150Z,82.52
2022-12-22T00:52:10.296Z,82.41
2022-12-22T00:54:55.536Z,82.47
2022-12-22T00:57:40.716Z,82.61
2022-12-22T01:00:28.356Z,82.80
2022-12-22T01:03:13.605Z,82.48
2022-12-22T01:05:58.724Z,82.38
2022-12-22T01:08:43.929Z,82.71
2022-12-22T01:11:29.220Z,82.41
2022-12-22T01:14:34.299Z,82.31
2022-12-22T01:17:19.399Z,82.64
2022-12-22T01:20:05.455Z,83.26
2022-12-22T01:22:50.526Z,82.82
2022-12-22T01:25:36.200Z,82.93
2022-12-22T01:28:21.307Z,83.28
2022-12-22T01:31:06.403Z,83.14
2022-12-22T01:33:51.558Z,82.92
2022-12-22T01:36:37.015Z,83.50
2022-12-22T01:39:22.161Z,83.16
2022-12-22T01:42:07.165Z,82.97
2022-12-22T01:44:52.195Z,82.95
2022-12-22T01:47:46.401Z,82.91
2022-12-22T01:50:47.812Z,82.95
2022-12-22T01:53:33.930Z,83.26
2022-12-22T01:56:19.047Z,83.23
2022-12-22T01:59:05.163Z,82.87
2022-12-22T02:01:51.567Z,82.91
2022-12-22T02:04:36.725Z,83.31
2022-12-22T02:07:23.537Z,83.40
2022-12-22T02:10:08.713Z,83.29
2022-12-22T02:13:29.210Z,83.74
2022-12-22T02:16:33.043Z,83.32
2022-12-22T02:19:24.338Z,83.82
2022-12-22T02:22:13.135Z,83.59
2022-12-22T02:25:22.224Z,83.56
2022-12-22T02:28:07.236Z,83.64
2022-12-22T02:30:52.497Z,83.78
2022-12-22T02:33:38.448Z,83.76
2022-12-22T02:36:24.108Z,83.50
2022-12-22T02:39:15.455Z,83.63
2022-12-22T02:42:13.091Z,83.19
2022-12-22T02:45:16.689Z,83.17
2022-12-22T02:48:02.915Z,83.58
2022-12-22T02:51:00.942Z,83.20
2022-12-22T02:53:46.271Z,83.18
2022-12-22T02:56:31.583Z,83.36
2022-12-22T02:59:16.722Z,83.08
2022-12-22T03:02:02.477Z,83.25
2022-12-22T03:04:47.585Z,83.54
2022-12-22T03:07:32.748Z,83.08
2022-12-22T03:10:18.008Z,82.93
2022-12-22T03:13:03.062Z,83.34
2022-12-22T03:15:48.253Z,83.59
2022-12-22T03:18:33.507Z,83.89
2022-12-22T03:21:18.697Z,83.32
2022-12-22T03:24:03.666Z,83.43
2022-12-22T03:26:30.428Z,83.73
2022-12-22T03:28:57.028Z,83.62
2022-12-22T03:31:23.683Z,83.52
2022-12-22T03:33:50.141Z,83.61
2022-12-22T03:36:16.576Z,83.48
2022-12-22T03:38:43.163Z,83.73
2022-12-22T03:41:29.578Z,83.73
2022-12-22T03:44:14.848Z,83.30
2022-12-22T03:46:41.357Z,83.68
2022-12-22T03:49:10.996Z,83.84
2022-12-22T03:51:41.611Z,83.55
2022-12-22T03:54:08.175Z,83.96
2022-12-22T03:56:34.636Z,83.65
2022-12-22T03:59:01.112Z,83.71
2022-12-22T04:01:27.700Z,83.70
2022-12-22T04:03:54.178Z,83.46
2022-12-22T04:06:32.803Z,83.47
2022-12-22T04:08:59.218Z,83.28
2022-12-22T04:11:44.406Z,83.48
2022-12-22T04:14:11.035Z,83.62
2022-12-22T04:16:37.564Z,83.09
2022-12-22T04:19:04.170Z,83.21
2022-12-22T04:21:30.603Z,83.16
2022-12-22T04:23:57.114Z,83.19
2022-12-22T04:26:23.797Z,83.35
2022-12-22T04:28:50.799Z,83.62
2022-12-22T04:31:17.291Z,83.40
2022-12-22T04:33:43.843Z,83.53
2022-12-22T04:36:10.498Z,83.24
2022-12-22T04:38:37.200Z,83.46
2022-12-22T04:41:03.676Z,83.39
2022-12-22T04:43:30.126Z,83.83
2022-12-22T04:45:56.655Z,83.75
2022-12-22T04:48:23.578Z,83.95
2022-12-22T04:50:50.611Z,84.08
2022-12-22T04:53:17.127Z,84.25
2022-12-22T04:55:47.290Z,84.25
2022-12-22T04:58:13.924Z,84.24
2022-12-22T05:00:40.403Z,84.20
2022-12-22T05:03:07.330Z,84.33
2022-12-22T05:05:34.124Z,83.85
2022-12-22T05:08:00.557Z,83.59
2022-12-22T05:10:27.089Z,83.33
2022-12-22T05:12:56.483Z,83.53
2022-12-22T05:15:22.870Z,83.38
2022-12-22T05:17:49.530Z,83.08
2022-12-22T05:20:16.221Z,82.97
2022-12-22T05:22:42.680Z,83.05
2022-12-22T05:25:09.368Z,83.28
2022-12-22T05:27:35.880Z,83.11
2022-12-22T05:30:02.322Z,82.96
2022-12-22T05:32:31.817Z,83.11
2022-12-22T05:34:58.247Z,83.10
2022-12-22T05:37:24.683Z,83.17
2022-12-22T05:39:51.343Z,83.16
2022-12-22T05:42:35.905Z,83.04
2022-12-22T05:45:03.450Z,83.19
2022-12-22T05:47:29.864Z,82.94
2022-12-22T05:49:56.443Z,83.57
2022-12-22T05:52:22.918Z,83.31
2022-12-22T05:54:49.350Z,83.30
2022-12-22T05:57:16.033Z,83.25
2022-12-22T05:59:42.540Z,83.05
2022-12-22T06:02:09.047Z,83.23
2022-12-22T06:04:35.564Z,83.38
2022-12-22T06:07:02.072Z,83.28
2022-12-22T06:09:28.654Z,83.03
2022-12-22T06:11:55.103Z,83.27
2022-12-22T06:14:21.580Z,83.31
2022-12-22T06:16:48.050Z,83.38
2022-12-22T06:19:14.477Z,83.07
2022-12-22T06:21:40.974Z,82.75
2022-12-22T06:24:07.654Z,83.16
2022-12-22T06:26:34.108Z,83.10
2022-12-22T06:29:00.632Z,82.88
2022-12-22T06:31:27.233Z,83.15
2022-12-22T06:33:54.098Z,83.10
2022-12-22T06:36:20.549Z,83.11
2022-12-22T06:38:47.124Z,83.25
2022-12-22T06:41:13.847Z,83.13
2022-12-22T06:43:40.335Z,82.97
2022-12-22T06:46:07.375Z,82.92
2022-12-22T06:48:34.033Z,82.67
2022-12-22T06:51:00.462Z,82.70
2022-12-22T06:53:27.118Z,82.92
2022-12-22T06:55:53.567Z,82.98
2022-12-22T06:58:20.013Z,83.08
2022-12-22T07:00:48.838Z,82.49
2022-12-22T07:03:15.606Z,82.55
2022-12-22T07:05:58.465Z,82.79
2022-12-22T07:08:25.070Z,83.00
2022-12-22T07:11:00.867Z,82.68
2022-12-22T07:13:28.481Z,83.18
2022-12-22T07:16:00.734Z,83.04
2022-12-22T07:18:29.170Z,83.14
2022-12-22T07:20:55.707Z,82.90
2022-12-22T07:23:22.200Z,82.91
2022-12-22T07:25:48.870Z,82.90
2022-12-22T07:28:20.667Z,82.50
2022-12-22T07:30:47.656Z,82.37
2022-12-22T07:33:14.137Z,82.35
2022-12-22T07:35:40.556Z,81.95
2022-12-22T07:38:07.004Z,82.23
2022-12-22T07:40:38.002Z,82.17
2022-12-22T07:43:08.179Z,82.67
2022-12-22T07:45:34.638Z,83.03
2022-12-22T07:48:01.206Z,83.31
2022-12-22T07:50:32.917Z,83.50
2022-12-22T07:52:59.988Z,84.05
2022-12-22T07:55:27.515Z,83.69
2022-12-22T07:57:54.072Z,83.85
2022-12-22T08:00:20.795Z,84.15
2022-12-22T08:02:50.781Z,83.43
2022-12-22T08:05:17.415Z,83.71
2022-12-22T08:07:44.092Z,83.67
2022-12-22T08:10:10.742Z,83.85
2022-12-22T08:12:37.222Z,83.03
2022-12-22T08:15:04.055Z,82.96
2022-12-22T08:17:30.539Z,83.54
2022-12-22T08:19:57.054Z,83.21
2022-12-22T08:22:26.632Z,83.40
2022-12-22T08:24:53.611Z,83.19
2022-12-22T08:27:49.475Z,82.13
2022-12-22T08:30:15.969Z,81.14
2022-12-22T08:32:44.507Z,80.65
2022-12-22T08:35:11.356Z,81.27
2022-12-22T08:37:41.458Z,80.73
2022-12-22T08:40:09.058Z,78.94
2022-12-22T08:42:35.495Z,74.78
2022-12-22T08:45:01.938Z,72.43
2022-12-22T08:47:28.445Z,73.22
2022-12-22T08:49:55.016Z,72.15
2022-12-22T08:52:21.465Z,71.49
2022-12-22T08:54:47.947Z,71.34
2022-12-22T08:57:14.431Z,71.28
2022-12-22T08:59:40.896Z,71.64
2022-12-22T09:02:10.516Z,72.23
2022-12-22T09:04:37.032Z,72.51
2022-12-22T09:07:03.701Z,73.60
2022-12-22T09:09:33.310Z,74.49
2022-12-22T09:12:00.128Z,74.03
2022-12-22T09:14:26.733Z,74.86
2022-12-22T09:16:53.248Z,74.83
2022-12-22T09:19:19.766Z,75.67
2022-12-22T09:21:46.588Z,75.42
2022-12-22T09:24:13.120Z,74.93
2022-12-22T09:26:39.763Z,74.67
2022-12-22T09:29:06.401Z,75.25
2022-12-22T09:31:33.523Z,74.93
2022-12-22T09:33:59.976Z,74.85
2022-12-22T09:36:27.457Z,75.13
2022-12-22T09:38:53.904Z,74.67
2022-12-22T09:41:26.619Z,74.56
2022-12-22T09:43:53.283Z,74.72
2022-12-22T09:46:26.098Z,74.89
2022-12-22T09:48:52.859Z,75.07
2022-12-22T09:51:26.194Z,73.49
2022-12-22T09:53:59.803Z,73.31
2022-12-22T09:56:29.287Z,73.40
2022-12-22T09:58:55.860Z,73.22
2022-12-22T10:01:29.248Z,73.68
2022-12-22T10:04:08.114Z,73.64
2022-12-22T10:06:34.825Z,73.59
2022-12-22T10:09:35.904Z,73.73
2022-12-22T10:11:57.423Z,74.55
2022-12-22T10:14:31.882Z,74.20
2022-12-22T10:17:17.098Z,74.32
2022-12-22T10:19:43.549Z,74.25
2022-12-22T10:22:24.930Z,75.01
2022-12-22T10:24:51.384Z,74.60
2022-12-22T10:27:17.996Z,75.15
2022-12-22T10:29:44.486Z,74.93
2022-12-22T10:32:15.050Z,74.88
2022-12-22T10:35:11.126Z,75.20
2022-12-22T10:37:38.190Z,75.01
2022-12-22T10:40:15.720Z,75.48
2022-12-22T10:42:48.802Z,75.25
2022-12-22T10:45:19.251Z,74.95
2022-12-22T10:47:47.222Z,75.44
2022-12-22T10:50:13.706Z,75.66
2022-12-22T10:52:40.163Z,75.42
2022-12-22T10:55:16.955Z,74.81
2022-12-22T10:57:43.442Z,74.12
2022-12-22T11:00:23.412Z,74.67
2022-12-22T11:02:53.639Z,74.43
2022-12-22T11:05:20.217Z,74.57
2022-12-22T11:07:49.799Z,74.65
2022-12-22T11:10:17.564Z,74.65
2022-12-22T11:12:47.179Z,74.28
2022-12-22T11:15:37.010Z,74.57
2022-12-22T11:18:06.484Z,74.24
2022-12-22T11:20:42.183Z,74.52
2022-12-22T11:23:24.886Z,74.68
2022-12-22T11:26:12.006Z,74.89
2022-12-22T11:28:53.751Z,75.30
2022-12-22T11:31:26.896Z,74.92
2022-12-22T11:33:59.632Z,75.56
2022-12-22T11:36:49.884Z,75.15
2022-12-22T11:39:17.507Z,75.46
2022-12-22T11:41:52.971Z,75.45
2022-12-22T11:44:31.740Z,75.19
2022-12-22T11:46:58.213Z,75.80
2022-12-22T11:49:30.732Z,75.76
2022-12-22T11:52:07.598Z,75.21
2022-12-22T11:54:37.245Z,75.26
2022-12-22T11:57:19.532Z,75.06
2022-12-22T11:59:52.169Z,74.86
2022-12-22T12:02:37.507Z,74.82
2022-12-22T12:05:19.557Z,74.63
2022-12-22T12:07:48.784Z,74.30
2022-12-22T12:10:15.395Z,74.97
2022-12-22T12:13:08.631Z,74.85
2022-12-22T12:15:38.053Z,75.27
2022-12-22T12:18:07.608Z,74.19
2022-12-22T12:20:34.070Z,74.29
2022-12-22T12:23:19.190Z,74.75
2022-12-22T12:25:54.796Z,75.03
2022-12-22T12:28:29.317Z,73.95
2022-12-22T12:30:59.571Z,73.99
2022-12-22T12:33:32.235Z,74.22
2022-12-22T12:36:01.904Z,74.39
2022-12-22T12:41:14.812Z,74.32
2022-12-22T12:43:41.408Z,73.97
2022-12-22T12:46:26.651Z,73.66
2022-12-22T12:48:56.343Z,73.29
2022-12-22T12:51:58.467Z,73.58
2022-12-22T12:54:30.640Z,72.83
2022-12-22T12:57:00.973Z,73.11
2022-12-22T12:59:42.609Z,73.21
2022-12-22T13:02:27.887Z,73.28
2022-12-22T13:05:01.267Z,73.19
2022-12-22T13:07:46.545Z,73.47
2022-12-22T13:10:24.373Z,73.54
2022-12-22T13:12:51.774Z,73.07
2022-12-22T13:15:37.407Z,73.18
2022-12-22T13:18:04.643Z,73.34
2022-12-22T13:20:32.312Z,73.22
2022-12-22T13:22:59.654Z,73.21
2022-12-22T13:25:27.769Z,73.51
2022-12-22T13:27:55.392Z,74.27
2022-12-22T13:30:21.873Z,74.56
2022-12-22T13:32:48.815Z,74.59
2022-12-22T13:35:32.534Z,74.53
2022-12-22T13:38:00.039Z,74.11
2022-12-22T13:40:33.742Z,73.67
2022-12-22T13:43:04.659Z,73.90
2022-12-22T13:45:57.566Z,73.47
2022-12-22T13:48:31.105Z,73.90
2022-12-22T13:50:58.176Z,73.84
2022-12-22T13:56:17.885Z,74.09
2022-12-22T13:58:47.585Z,74.10
2022-12-22T14:01:17.197Z,74.27
2022-12-22T14:04:03.856Z,74.95
2022-12-22T14:06:32.684Z,74.67
2022-12-22T14:09:14.544Z,75.52
2022-12-22T14:11:47.059Z,74.83
2022-12-22T14:14:18.243Z,75.50
2022-12-22T14:16:45.867Z,75.36
2022-12-22T14:19:16.469Z,75.43
2022-12-22T14:21:43.379Z,75.52
2022-12-22T14:24:11.797Z,75.75
2022-12-22T14:26:38.512Z,75.83
2022-12-22T14:29:04.991Z,75.80
2022-12-22T14:31:31.486Z,76.01
2022-12-22T14:34:05.290Z,76.32
2022-12-22T14:36:40.794Z,76.15
2022-12-22T14:39:10.687Z,76.45
2022-12-22T14:41:41.907Z,76.88
2022-12-22T14:44:32.000Z,76.23
2022-12-22T14:47:01.465Z,76.64
2022-12-22T14:49:27.909Z,76.34
2022-12-22T14:52:00.735Z,75.92
2022-12-22T14:54:27.806Z,75.45
2022-12-22T14:56:54.518Z,75.64
2022-12-22T14:59:25.881Z,74.33
2022-12-22T15:01:59.207Z,75.06
2022-12-22T15:04:25.838Z,75.08
2022-12-22T15:06:52.401Z,75.56
2022-12-22T15:09:33.347Z,75.64
2022-12-22T15:12:06.309Z,75.52
2022-12-22T15:14:38.680Z,75.63
2022-12-22T15:17:06.253Z,76.02
2022-12-22T15:19:35.973Z,76.09
2022-12-22T15:22:03.159Z,76.12
2022-12-22T15:24:29.705Z,75.22
2022-12-22T15:26:56.517Z,75.12
2022-12-22T15:29:22.952Z,75.68
2022-12-22T15:31:49.395Z,75.60
2022-12-22T15:34:22.375Z,75.92
2022-12-22T15:36:48.836Z,75.82
2022-12-22T15:39:15.825Z,76.24
2022-12-22T15:41:42.931Z,76.01
2022-12-22T15:44:09.404Z,76.50
2022-12-22T15:46:36.167Z,76.47
2022-12-22T15:49:02.703Z,76.05
2022-12-22T15:51:29.814Z,76.40
2022-12-22T15:53:56.517Z,76.17
2022-12-22T15:56:23.455Z,76.55
2022-12-22T15:58:49.865Z,76.60
2022-12-22T16:01:16.393Z,76.17
2022-12-22T16:03:42.953Z,76.56
2022-12-22T16:06:13.633Z,76.18
2022-12-22T16:08:40.283Z,76.76
2022-12-22T16:11:07.075Z,76.88
2022-12-22T16:13:33.499Z,77.14
2022-12-22T16:16:00.043Z,77.37
2022-12-22T16:18:26.720Z,76.94
2022-12-22T16:20:53.278Z,77.12
2022-12-22T16:23:20.514Z,77.07
2022-12-22T16:25:47.207Z,76.75
2022-12-22T16:28:33.360Z,77.00
2022-12-22T16:31:00.019Z,77.14
2022-12-22T16:33:26.513Z,77.65
2022-12-22T16:35:53.208Z,77.17
2022-12-22T16:38:19.929Z,77.04
2022-12-22T16:40:47.335Z,77.07
2022-12-22T16:46:02.183Z,76.65
2022-12-22T16:48:30.763Z,77.03
2022-12-22T16:50:57.273Z,76.29
2022-12-22T16:53:23.771Z,77.18
2022-12-22T16:55:50.188Z,76.43
2022-12-22T16:58:17.019Z,76.31
2022-12-22T17:00:43.905Z,77.01
2022-12-22T17:03:18.688Z,76.22
2022-12-22T17:06:05.245Z,76.06
2022-12-22T17:08:36.470Z,76.45
2022-12-22T17:11:10.106Z,76.47
2022-12-22T17:13:37.240Z,76.46
2022-12-22T17:16:05.286Z,76.91
2022-12-22T17:18:37.202Z,76.14
2022-12-22T17:21:04.351Z,76.34
2022-12-22T17:23:34.929Z,76.33
2022-12-22T17:26:02.054Z,76.49
2022-12-22T17:28:28.478Z,76.62
2022-12-22T17:30:55.495Z,76.33
2022-12-22T17:33:22.029Z,77.01
2022-12-22T17:35:48.565Z,76.38
2022-12-22T17:38:18.543Z,76.51
2022-12-22T17:40:45.256Z,76.29
2022-12-22T17:43:15.532Z,75.83
2022-12-22T17:45:42.165Z,75.91
2022-12-22T17:48:08.924Z,76.53
2022-12-22T17:50:35.554Z,76.57
2022-12-22T17:53:02.201Z,76.58
2022-12-22T17:56:05.928Z,76.64
2022-12-22T17:58:16.277Z,76.09
2022-12-22T18:00:42.878Z,76.74
2022-12-22T18:03:15.727Z,76.96
2022-12-22T18:05:46.219Z,76.46
2022-12-22T18:08:13.043Z,76.28
2022-12-22T18:10:42.699Z,76.56
2022-12-22T18:13:22.698Z,76.29
2022-12-22T18:15:49.376Z,76.44
2022-12-22T18:18:16.388Z,76.41
2022-12-22T18:20:42.991Z,76.02
2022-12-22T18:23:16.488Z,76.26
2022-12-22T18:25:43.033Z,75.84
2022-12-22T18:28:13.037Z,76.03
2022-12-22T18:30:39.535Z,76.06
2022-12-22T18:33:05.996Z,76.23
2022-12-22T18:35:32.432Z,76.67
2022-12-22T18:37:59.002Z,76.61
2022-12-22T18:40:38.245Z,75.82
2022-12-22T18:43:11.664Z,76.19
2022-12-22T18:45:38.167Z,76.07
2022-12-22T18:48:04.727Z,76.04
2022-12-22T18:50:31.380Z,76.46
2022-12-22T18:52:58.734Z,76.10
2022-12-22T18:55:26.044Z,76.31
2022-12-22T18:57:52.862Z,75.83
2022-12-22T19:00:20.973Z,75.85
2022-12-22T19:02:47.980Z,76.04
2022-12-22T19:05:18.788Z,76.24
2022-12-22T19:07:45.358Z,76.31
2022-12-22T19:10:15.450Z,76.71
2022-12-22T19:12:41.971Z,76.82
2022-12-22T19:15:12.032Z,76.69
2022-12-22T19:17:48.345Z,76.19
2022-12-22T19:20:16.280Z,76.29
2022-12-22T19:22:43.944Z,76.27
2022-12-22T19:25:17.834Z,76.92
2022-12-22T19:27:44.268Z,76.04
2022-12-22T19:30:20.920Z,76.41
2022-12-22T19:32:48.356Z,76.78
2022-12-22T19:35:15.831Z,77.28
2022-12-22T19:37:42.358Z,78.08
2022-12-22T19:40:09.285Z,78.08
2022-12-22T19:42:36.222Z,77.57
2022-12-22T20:34:36.764Z,80.44
2022-12-22T20:37:03.284Z,80.60
2022-12-22T20:39:30.453Z,81.31
2022-12-22T20:41:56.890Z,80.97
2022-12-22T20:44:23.432Z,81.39
2022-12-22T20:46:49.980Z,81.33
2022-12-22T20:49:16.552Z,81.89
2022-12-22T20:51:43.116Z,81.31
2022-12-22T20:54:12.818Z,81.88
2022-12-22T20:56:39.420Z,82.67
2022-12-22T20:59:31.921Z,82.12
2022-12-22T21:01:58.603Z,82.14
2022-12-22T21:04:25.181Z,81.82
2022-12-22T21:06:52.679Z,82.61
2022-12-22T21:09:19.214Z,82.84
2022-12-22T21:11:45.711Z,83.02
2022-12-22T21:14:12.385Z,82.59
2022-12-22T21:16:39.063Z,82.91
2022-12-22T21:19:05.602Z,82.80
2022-12-22T21:21:32.190Z,83.31
2022-12-22T21:23:58.624Z,83.01
2022-12-22T21:26:31.986Z,83.22
2022-12-22T21:28:58.706Z,84.19
2022-12-22T21:31:25.198Z,83.38
2022-12-22T21:33:51.656Z,83.71
2022-12-22T21:36:22.771Z,83.66
2022-12-22T21:38:49.731Z,84.31
2022-12-22T21:41:16.349Z,84.01
2022-12-22T21:43:42.981Z,84.44
2022-12-22T21:46:12.998Z,84.66
2022-12-22T21:48:39.642Z,84.52
2022-12-22T21:51:06.131Z,85.11
2022-12-22T21:53:32.710Z,84.62
2022-12-22T21:55:59.205Z,84.85
2022-12-22T21:58:25.749Z,84.34
2022-12-22T22:00:52.169Z,85.26
2022-12-22T22:03:18.851Z,85.46
2022-12-22T22:05:45.423Z,85.59
2022-12-22T22:08:12.105Z,85.43
2022-12-22T22:10:39.427Z,85.80
2022-12-22T22:13:05.992Z,85.38
2022-12-22T22:15:32.614Z,85.98
2022-12-22T22:18:04.670Z,85.24
2022-12-22T22:20:33.649Z,85.25
2022-12-22T22:23:00.324Z,85.39
2022-12-22T22:25:26.883Z,86.06
2022-12-22T22:27:53.425Z,85.35
2022-12-22T22:30:25.081Z,85.90
2022-12-22T22:32:51.674Z,85.83
2022-12-22T22:35:21.191Z,85.63
2022-12-22T22:37:50.643Z,85.80
2022-12-22T22:40:17.925Z,85.69
2022-12-22T22:42:44.464Z,86.02
2022-12-22T22:45:11.641Z,85.68
2022-12-22T22:47:38.448Z,85.99
2022-12-22T22:50:06.912Z,85.54
2022-12-22T22:52:38.082Z,85.89
2022-12-22T22:55:04.717Z,86.47
2022-12-22T22:57:31.196Z,86.44
2022-12-22T22:59:57.680Z,86.13
2022-12-22T23:02:24.253Z,85.60
2022-12-22T23:04:50.933Z,86.28
2022-12-22T23:07:17.431Z,86.03
2022-12-22T23:09:44.011Z,86.18
2022-12-22T23:12:10.670Z,86.04
2022-12-22T23:14:39.493Z,85.87
2022-12-22T23:17:05.964Z,86.03
2022-12-22T23:19:32.432Z,85.17
2022-12-22T23:21:58.868Z,85.91
2022-12-22T23:24:25.323Z,85.92
2022-12-22T23:26:51.820Z,85.83
2022-12-22T23:29:18.283Z,85.31
2022-12-22T23:31:44.786Z,85.32
2022-12-22T23:34:11.821Z,84.87
2022-12-22T23:36:38.273Z,85.70
2022-12-22T23:39:04.714Z,85.52
2022-12-22T23:41:31.185Z,85.27
2022-12-22T23:43:57.646Z,84.95
2022-12-22T23:46:24.121Z,84.79
2022-12-22T23:48:54.481Z,84.39
2022-12-22T23:51:21.348Z,84.61
2022-12-22T23:53:47.797Z,84.59
2022-12-22T23:56:14.321Z,84.76
2022-12-22T23:58:40.722Z,85.06
